Pagrindinis puslapis
METAR-TAF:

METAR-TAF

Oro uostai :

Denpasaras, Indonezija

platuma: 08-44-53S, ilguma: 115-10-03E, Aukštis: 4 m

Dabartinis oras

Ataskaita buvo paskelbta 34 minutes, ne 19:00 UTC
Vėjas 16 kt iš Pietų
Temperatūra 26°C
Drėgmė 100%
Slėgis 1009 hPa
Matomumas: 5000 m
Mažai debesys ne aukštis 1600 ft, Liūtiniai kamuoliniai debesys.
Su prošvaistėmis ne aukštis 1600 ft
lietus

METAR: WADD 301900Z 18016KT 5000 -RA FEW016CB BKN016 26/26 Q1009 MOSIG

Laikas: 02:34 (19:34 UTC)

Prognozė

Ataskaita buvo paskelbta 1 valandą ir 4 minutes, ne 18:30 UTC
Prognozė galioja nuo 30 metu 19 UTC su 01 metu 18 UTC
Vėjas 10 kt iš Pietryčių
Matomumas 10 km arba daugiau
Išsisklaidę debesys ne aukštis 1700 ft
Laikinai
nuo 30 metu 19 UTC su 30 metu 23 UTC
Matomumas: 5000 m
Mažai debesys ne aukštis 1600 ft, Liūtiniai kamuoliniai debesys.
lietus
Laikinai
nuo 01 metu 02 UTC su 01 metu 06 UTC
Su prošvaistėmis ne aukštis 1500 ft

TAF: WADD 301830Z 3019/0118 14010KT 9999 SCT017 TEMPO 3019/3023 5000 RA FEW016CB TEMPO 0102/0106 BKN015

Orai ataskaitas ir orų prognozės (METAR, TAF).

turimą stotys yra geltonos ir raudonos taškus žemėlapyje.

Perkelti pele per norėdami pamatyti stoties vardą.

Tada spustelėkite, norėdami matyti oro stebėjimo ir prognozės.

Norėdami pakeisti žemėlapį: spustelėkite ant žalios mygtukų su juodo kryžiaus žemyn,; žalią mygtuką su brūkšneliu, jei norite nutolinti; arba žalių rodyklių gretimoms žemėlapius.


METAR-TAF: